Time;durP1;ratioP1;P1;durP2;ratioP2;P2;SDS_P1;SDS_P2;PMS_P1;PMS_P2;Temp;Humidity;BMP_temperature;BMP_pressure;BME280_temperature;BME280_humidity;BME280_pressure;Samples;Min_cycle;Max_cycle;Signal;HPM_P1;HPM_P2
2021/05/26 00:03:29;;;;;;;18.37;6.07;;;;;8.60;100876.00;;;;10507543;28;20762;-77
2021/05/26 00:08:34;;;;;;;20.20;4.97;;;;;8.40;100868.00;;;;10507995;28;20185;-77
2021/05/26 00:13:38;;;;;;;16.30;4.87;;;;;8.40;100868.00;;;;10501047;28;20315;-77
2021/05/26 00:18:40;;;;;;;20.73;6.00;;;;;8.40;100866.00;;;;10490787;28;20196;-77
2021/05/26 00:23:42;;;;;;;17.73;5.83;;;;;8.30;100859.00;;;;10488677;28;20280;-77
2021/05/26 00:28:46;;;;;;;18.50;6.10;;;;;8.40;100852.00;;;;10504343;28;20196;-77
2021/05/26 00:33:49;;;;;;;17.60;5.10;;;;;8.50;100850.00;;;;10514575;28;20224;-77
2021/05/26 00:38:51;;;;;;;15.17;4.57;;;;;8.50;100847.00;;;;10505945;28;20559;-77
2021/05/26 00:43:52;;;;;;;9.27;4.17;;;;;8.40;100837.00;;;;10468611;28;20294;-77
2021/05/26 00:48:54;;;;;;;11.73;4.40;;;;;8.30;100843.00;;;;10505830;28;20212;-77
2021/05/26 00:53:56;;;;;;;8.10;2.60;;;;;8.30;100839.00;;;;10520699;28;20221;-77
2021/05/26 00:59:01;;;;;;;4.37;1.70;;;;;8.20;100836.00;;;;10507682;28;20284;-77
2021/05/26 01:04:03;;;;;;;5.60;1.93;;;;;8.20;100844.00;;;;10535307;28;20659;-78
2021/05/26 01:09:05;;;;;;;2.13;1.50;;;;;8.20;100835.00;;;;10521377;28;20211;-78
2021/05/26 01:14:08;;;;;;;6.13;1.97;;;;;8.20;100825.00;;;;10517456;28;20214;-78
2021/05/26 01:19:14;;;;;;;4.87;2.13;;;;;8.20;100815.00;;;;10461717;28;20199;-78
2021/05/26 01:24:16;;;;;;;6.30;2.53;;;;;8.20;100809.00;;;;10439349;28;20218;-78
2021/05/26 01:29:18;;;;;;;6.33;2.43;;;;;8.40;100806.00;;;;10458896;28;20192;-78
2021/05/26 01:34:23;;;;;;;5.90;1.87;;;;;8.50;100812.00;;;;10515031;28;20316;-78
2021/05/26 01:39:31;;;;;;;2.17;1.43;;;;;8.60;100814.00;;;;10480361;28;20209;-79
2021/05/26 01:44:35;;;;;;;4.90;1.33;;;;;8.60;100810.00;;;;10498057;28;20205;-78
2021/05/26 01:49:58;;;;;;;4.53;1.60;;;;;8.60;100813.00;;;;10502116;28;20300;-78
2021/05/26 01:55:02;;;;;;;6.07;1.50;;;;;8.50;100792.00;;;;10515244;28;20260;-78
2021/05/26 02:00:07;;;;;;;6.03;1.60;;;;;8.40;100795.00;;;;10498428;28;20201;-78
2021/05/26 02:05:21;;;;;;;6.93;2.30;;;;;8.40;100780.00;;;;10506313;28;20213;-79
2021/05/26 02:15:47;;;;;;;6.90;2.47;;;;;8.50;100770.00;;;;10511229;28;20220;-78
2021/05/26 02:20:50;;;;;;;5.00;2.47;;;;;8.50;100770.00;;;;10529205;28;20212;-79
2021/05/26 02:25:52;;;;;;;4.33;2.37;;;;;8.50;100769.00;;;;10510675;28;20647;-79
2021/05/26 02:30:54;;;;;;;6.43;1.97;;;;;8.50;100765.00;;;;10508925;28;20192;-79
2021/05/26 02:35:56;;;;;;;4.97;2.20;;;;;8.50;100757.00;;;;10525278;28;20240;-78
2021/05/26 02:40:59;;;;;;;4.07;1.80;;;;;8.50;100747.00;;;;10524076;28;20265;-79
2021/05/26 02:46:04;;;;;;;4.27;2.07;;;;;8.50;100736.00;;;;10524282;28;20611;-79
2021/05/26 02:51:06;;;;;;;4.97;2.00;;;;;8.40;100730.00;;;;10523789;28;20192;-79
2021/05/26 02:56:09;;;;;;;4.30;2.00;;;;;8.30;100731.00;;;;10506954;28;20227;-79
2021/05/26 03:01:11;;;;;;;5.03;1.70;;;;;8.20;100725.00;;;;10540561;28;20207;-79
2021/05/26 03:06:34;;;;;;;2.90;2.00;;;;;8.20;100721.00;;;;10490865;28;20616;-79
2021/05/26 03:11:37;;;;;;;4.97;2.77;;;;;8.20;100719.00;;;;10475169;28;20193;-79
2021/05/26 03:16:53;;;;;;;4.83;3.00;;;;;8.20;100703.00;;;;10524185;28;20216;-78
2021/05/26 03:21:57;;;;;;;7.63;3.53;;;;;8.20;100713.00;;;;10490377;28;20208;-79
2021/05/26 03:27:26;;;;;;;6.70;3.73;;;;;8.10;100704.00;;;;10524741;28;20239;-79
2021/05/26 03:32:27;;;;;;;4.80;3.40;;;;;8.10;100700.00;;;;10506580;28;20228;-79
2021/05/26 03:37:29;;;;;;;7.17;3.70;;;;;8.00;100705.00;;;;10522367;28;20217;-79
2021/05/26 03:42:32;;;;;;;7.33;3.63;;;;;7.90;100698.00;;;;10517012;28;20201;-79
2021/05/26 03:47:36;;;;;;;7.47;3.97;;;;;7.80;100696.00;;;;10443410;28;20564;-77
2021/05/26 03:52:40;;;;;;;9.80;4.33;;;;;7.80;100687.00;;;;10441954;28;20190;-79
2021/05/26 03:57:43;;;;;;;9.27;3.87;;;;;7.70;100679.00;;;;10471776;28;20292;-79
2021/05/26 04:02:48;;;;;;;10.30;4.20;;;;;7.70;100679.00;;;;10498276;28;20250;-79
2021/05/26 04:07:53;;;;;;;11.47;4.67;;;;;7.70;100672.00;;;;10468303;28;20677;-79
2021/05/26 04:12:56;;;;;;;7.37;4.13;;;;;7.90;100666.00;;;;10463213;28;20300;-79
2021/05/26 04:18:07;;;;;;;13.77;5.87;;;;;8.00;100671.00;;;;10464877;28;20573;-79
2021/05/26 04:23:12;;;;;;;12.43;5.27;;;;;8.10;100662.00;;;;10493861;28;20190;-79
2021/05/26 04:28:26;;;;;;;15.23;5.93;;;;;8.30;100655.00;;;;10472959;28;20197;-79
2021/05/26 04:33:28;;;;;;;12.47;6.30;;;;;8.60;100652.00;;;;10521269;28;20224;-79
2021/05/26 04:38:30;;;;;;;13.40;5.47;;;;;8.80;100647.00;;;;10485239;28;20742;-79
2021/05/26 04:43:33;;;;;;;10.17;5.03;;;;;9.00;100658.00;;;;10485687;28;20193;-78
2021/05/26 04:48:35;;;;;;;11.03;5.10;;;;;9.20;100648.00;;;;10490572;28;20212;-79
2021/05/26 04:53:36;;;;;;;6.13;3.83;;;;;9.30;100648.00;;;;10503686;28;20220;-79
2021/05/26 04:58:39;;;;;;;7.03;3.50;;;;;9.50;100649.00;;;;10491764;28;20205;-79
2021/05/26 05:03:41;;;;;;;7.20;3.87;;;;;9.60;100649.00;;;;10476611;28;20207;-79
2021/05/26 05:08:44;;;;;;;11.37;4.20;;;;;9.80;100655.00;;;;10498094;28;20201;-78
2021/05/26 05:13:47;;;;;;;7.20;3.47;;;;;9.90;100641.00;;;;10509496;28;20193;-78
2021/05/26 05:18:48;;;;;;;10.43;3.47;;;;;10.10;100641.00;;;;10496829;28;20247;-78
2021/05/26 05:23:50;;;;;;;4.13;3.10;;;;;10.10;100636.00;;;;10502970;28;20218;-78
2021/05/26 05:28:52;;;;;;;4.77;3.10;;;;;10.20;100641.00;;;;10478315;28;20201;-78
2021/05/26 05:33:54;;;;;;;9.63;3.00;;;;;10.30;100646.00;;;;10460102;28;20224;-78
2021/05/26 05:38:56;;;;;;;6.77;2.80;;;;;10.40;100656.00;;;;10460892;28;20212;-78
2021/05/26 05:43:58;;;;;;;12.87;3.60;;;;;10.60;100664.00;;;;10485453;28;20201;-79
2021/05/26 05:49:01;;;;;;;5.27;2.90;;;;;11.00;100670.00;;;;10478823;28;20213;-79
2021/05/26 05:54:03;;;;;;;4.77;2.93;;;;;11.30;100689.00;;;;10464987;28;20223;-78
2021/05/26 05:59:05;;;;;;;3.73;2.87;;;;;11.40;100688.00;;;;10486689;28;20642;-79
2021/05/26 06:04:07;;;;;;;4.23;2.43;;;;;11.60;100684.00;;;;10500253;28;20226;-78
2021/05/26 06:09:08;;;;;;;4.73;3.20;;;;;11.80;100692.00;;;;10477181;28;20204;-77
2021/05/26 06:14:27;;;;;;;5.30;2.80;;;;;12.00;100694.00;;;;10499902;28;20277;-79
2021/05/26 06:19:28;;;;;;;3.90;2.23;;;;;12.30;100696.00;;;;10482520;28;20205;-79
2021/05/26 06:24:30;;;;;;;5.03;2.90;;;;;12.30;100703.00;;;;10481617;28;20266;-79
2021/05/26 06:29:32;;;;;;;4.73;2.60;;;;;12.10;100709.00;;;;10440689;28;20263;-78
2021/05/26 06:34:34;;;;;;;6.30;3.10;;;;;12.30;100709.00;;;;10509112;28;20214;-79
2021/05/26 06:39:36;;;;;;;6.30;3.47;;;;;12.70;100710.00;;;;10519664;28;20226;-79
2021/05/26 06:44:38;;;;;;;5.77;3.10;;;;;13.10;100718.00;;;;10511122;28;20270;-78
2021/05/26 06:49:40;;;;;;;6.40;2.70;;;;;13.70;100717.00;;;;10501054;28;20204;-79
2021/05/26 06:54:42;;;;;;;6.90;2.83;;;;;13.90;100718.00;;;;10484669;28;20209;-78
2021/05/26 06:59:44;;;;;;;4.10;2.80;;;;;14.10;100711.00;;;;10473014;28;20624;-79
2021/05/26 07:04:47;;;;;;;5.07;2.80;;;;;14.30;100709.00;;;;10483586;28;20192;-80
2021/05/26 07:09:48;;;;;;;5.10;2.53;;;;;14.40;100720.00;;;;10506623;28;20197;-79
2021/05/26 07:14:50;;;;;;;3.13;2.50;;;;;14.00;100713.00;;;;10496235;28;20224;-79
2021/05/26 07:19:53;;;;;;;5.30;2.40;;;;;13.80;100710.00;;;;10481164;28;20190;-79
2021/05/26 07:24:55;;;;;;;6.27;2.77;;;;;13.30;100724.00;;;;10444832;28;20216;-79
2021/05/26 07:29:56;;;;;;;3.80;2.80;;;;;13.10;100721.00;;;;10447554;28;20202;-79
2021/05/26 07:34:58;;;;;;;5.47;2.23;;;;;13.80;100705.00;;;;10468402;28;20227;-79
2021/05/26 07:40:01;;;;;;;3.50;2.27;;;;;14.30;100704.00;;;;10511924;28;20197;-78
2021/05/26 07:45:04;;;;;;;4.30;2.33;;;;;15.50;100698.00;;;;10443398;28;20223;-79
2021/05/26 07:50:06;;;;;;;5.83;2.60;;;;;16.40;100689.00;;;;10496798;28;20285;-78
2021/05/26 07:55:08;;;;;;;4.10;2.40;;;;;16.40;100690.00;;;;10497146;28;20217;-79
2021/05/26 08:00:12;;;;;;;3.83;2.60;;;;;16.00;100699.00;;;;10483753;28;20824;-79
2021/05/26 08:05:16;;;;;;;3.67;2.20;;;;;16.10;100691.00;;;;10494059;28;20299;-78
2021/05/26 08:10:17;;;;;;;3.70;1.97;;;;;16.10;100697.00;;;;10484249;28;20573;-78
2021/05/26 08:15:19;;;;;;;3.93;2.37;;;;;15.20;100695.00;;;;10461867;28;20228;-79
2021/05/26 08:20:22;;;;;;;4.37;2.23;;;;;14.30;100704.00;;;;10502087;28;20622;-79
2021/05/26 08:25:24;;;;;;;3.47;2.40;;;;;16.10;100683.00;;;;10511851;28;20639;-79
2021/05/26 08:30:26;;;;;;;3.43;2.00;;;;;16.20;100689.00;;;;10487552;28;20201;-80
2021/05/26 08:35:30;;;;;;;4.80;2.03;;;;;17.70;100676.00;;;;10516613;28;21162;-79
2021/05/26 08:40:34;;;;;;;3.35;2.05;;;;;18.90;100664.00;;;;10456434;28;20212;-79
2021/05/26 08:45:36;;;;;;;3.38;2.30;;;;;18.70;100664.00;;;;10502403;28;20197;-80
2021/05/26 08:50:40;;;;;;;3.45;1.80;;;;;17.90;100653.00;;;;10508481;28;20211;-80
2021/05/26 08:55:42;;;;;;;2.45;1.83;;;;;19.20;100639.00;;;;10500646;28;20213;-80
2021/05/26 09:00:45;;;;;;;3.78;1.75;;;;;18.40;100650.00;;;;10506922;28;20203;-79
2021/05/26 09:05:53;;;;;;;3.65;2.58;;;;;17.00;100655.00;;;;10531558;28;20197;-78
2021/05/26 09:11:03;;;;;;;5.37;2.90;;;;;15.70;100664.00;;;;10499971;28;20280;-81
2021/05/26 09:16:09;;;;;;;6.60;2.67;;;;;15.50;100665.00;;;;10486940;28;20217;-78
2021/05/26 09:21:11;;;;;;;7.20;3.20;;;;;14.60;100669.00;;;;10496216;28;20207;-77
2021/05/26 09:26:13;;;;;;;6.30;3.40;;;;;14.50;100666.00;;;;10497309;28;20554;-78
2021/05/26 09:31:15;;;;;;;4.67;2.80;;;;;17.60;100664.00;;;;10502564;28;20197;-79
2021/05/26 09:36:25;;;;;;;4.63;2.90;;;;;18.70;100650.00;;;;10501566;28;20220;-79
2021/05/26 09:41:35;;;;;;;5.30;2.80;;;;;20.20;100642.00;;;;10494743;28;20228;-80
2021/05/26 09:46:43;;;;;;;3.80;2.28;;;;;18.70;100644.00;;;;10478352;28;20271;-80
2021/05/26 09:51:52;;;;;;;3.88;3.08;;;;;18.70;100644.00;;;;10483426;28;20513;-79
2021/05/26 09:57:04;;;;;;;6.55;3.30;;;;;18.50;100646.00;;;;10516596;28;20235;-79
2021/05/26 10:02:07;;;;;;;5.43;3.33;;;;;18.50;100650.00;;;;10494301;28;20564;-79
2021/05/26 10:07:10;;;;;;;5.65;3.42;;;;;17.50;100641.00;;;;10487594;28;20205;-79
2021/05/26 10:12:18;;;;;;;5.35;3.80;;;;;17.20;100654.00;;;;10523186;28;20226;-80
2021/05/26 10:17:24;;;;;;;5.68;3.55;;;;;18.00;100660.00;;;;10515881;28;20221;-80
2021/05/26 10:22:27;;;;;;;4.38;3.63;;;;;19.40;100644.00;;;;10471580;28;20197;-80
2021/05/26 10:27:39;;;;;;;5.95;3.22;;;;;19.70;100635.00;;;;10469418;28;20193;-82
2021/05/26 10:32:49;;;;;;;11.70;4.28;;;;;19.30;100641.00;;;;10488453;28;20212;-80
2021/05/26 10:37:57;;;;;;;6.72;3.90;;;;;19.80;100625.00;;;;10500888;28;20292;-80
2021/05/26 10:43:15;;;;;;;5.32;3.42;;;;;21.20;100614.00;;;;10466305;28;20258;-80
2021/05/26 10:48:38;;;;;;;5.22;3.30;;;;;22.20;100615.00;;;;10489108;28;20309;-81
2021/05/26 10:53:43;;;;;;;7.00;3.05;;;;;23.50;100604.00;;;;10475301;28;20835;-77
2021/05/26 10:58:45;;;;;;;6.78;3.60;;;;;23.20;100615.00;;;;10474191;28;20423;-78
2021/05/26 11:03:47;;;;;;;6.13;2.88;;;;;20.90;100616.00;;;;10489126;28;20195;-77
2021/05/26 11:08:52;;;;;;;4.25;2.38;;;;;19.50;100610.00;;;;10465581;28;20208;-80
2021/05/26 11:14:01;;;;;;;3.65;2.72;;;;;20.60;100601.00;;;;10486550;28;20208;-80
2021/05/26 11:19:13;;;;;;;4.47;2.67;;;;;23.00;100612.00;;;;10516985;28;20319;-81
2021/05/26 11:24:17;;;;;;;6.90;3.00;;;;;21.50;100626.00;;;;10486704;28;20202;-79
2021/05/26 11:29:38;;;;;;;4.05;2.38;;;;;20.80;100622.00;;;;10459582;28;20201;-79
2021/05/26 11:34:46;;;;;;;5.40;3.13;;;;;20.60;100626.00;;;;10469576;28;20221;-79
2021/05/26 11:39:49;;;;;;;5.60;3.05;;;;;20.70;100620.00;;;;10477257;28;20213;-81
2021/05/26 11:44:58;;;;;;;9.27;3.85;;;;;21.20;100621.00;;;;10509428;28;20204;-82
2021/05/26 11:50:17;;;;;;;4.65;2.97;;;;;21.70;100633.00;;;;10467664;28;20209;-80
2021/05/26 11:55:24;;;;;;;9.50;3.83;;;;;20.30;100634.00;;;;10485219;28;20224;-79
2021/05/26 12:00:29;;;;;;;5.93;2.70;;;;;20.30;100634.00;;;;10484626;28;20670;-80
2021/05/26 12:05:51;;;;;;;2.72;1.10;;;;;20.60;100636.00;;;;10459788;28;20196;-80
2021/05/26 12:10:58;;;;;;;3.85;1.35;;;;;21.40;100632.00;;;;10490793;28;20201;-80
2021/05/26 12:16:06;;;;;;;1.48;1.20;;;;;20.70;100643.00;;;;10482855;28;20255;-80
2021/05/26 12:21:08;;;;;;;4.18;1.73;;;;;21.70;100636.00;;;;10476085;28;20668;-79
2021/05/26 12:26:36;;;;;;;5.45;1.15;;;;;21.70;100650.00;;;;10500024;28;20667;-79
2021/05/26 12:31:40;;;;;;;2.33;1.50;;;;;21.10;100658.00;;;;10480495;28;20226;-81
2021/05/26 12:36:54;;;;;;;5.72;2.22;;;;;20.00;100661.00;;;;10476811;28;20222;-80
2021/05/26 12:41:57;;;;;;;5.70;2.10;;;;;19.60;100650.00;;;;10495478;28;20227;-80
2021/05/26 12:47:02;;;;;;;6.60;2.03;;;;;20.90;100660.00;;;;10476598;28;20193;-80
2021/05/26 12:52:11;;;;;;;6.03;1.63;;;;;19.80;100663.00;;;;10498731;28;20220;-80
2021/05/26 12:57:23;;;;;;;4.53;1.58;;;;;19.70;100659.00;;;;10487921;28;20247;-80
2021/05/26 13:02:37;;;;;;;1.88;1.33;;;;;20.60;100653.00;;;;10471697;28;20197;-80
2021/05/26 13:07:44;;;;;;;2.85;1.20;;;;;21.30;100678.00;;;;10471645;28;20937;-80
2021/05/26 13:12:47;;;;;;;2.55;1.15;;;;;21.80;100672.00;;;;10481289;28;20211;-79
2021/05/26 13:17:51;;;;;;;2.25;1.40;;;;;20.10;100686.00;;;;10444878;28;20214;-78
2021/05/26 13:22:54;;;;;;;2.03;1.13;;;;;19.30;100692.00;;;;10506344;28;20900;-80
2021/05/26 13:28:11;;;;;;;1.35;0.90;;;;;19.10;100708.00;;;;10460566;28;20215;-80
2021/05/26 13:33:14;;;;;;;2.90;1.20;;;;;20.40;100709.00;;;;10472372;28;20227;-80
2021/05/26 13:38:16;;;;;;;1.95;1.40;;;;;19.10;100705.00;;;;10529774;28;20272;-80
2021/05/26 13:43:18;;;;;;;3.65;2.15;;;;;19.50;100709.00;;;;10511400;28;20196;-79
2021/05/26 13:48:20;;;;;;;1.80;1.70;;;;;22.50;100701.00;;;;10528011;28;20258;-79
2021/05/26 13:53:22;;;;;;;2.70;2.40;;;;;22.00;100722.00;;;;10465263;28;20223;-80
2021/05/26 13:58:24;;;;;;;2.83;2.42;;;;;19.50;100718.00;;;;10447285;28;20736;-79
2021/05/26 14:03:26;;;;;;;5.90;3.13;;;;;18.50;100724.00;;;;10473603;28;20200;-80
2021/05/26 14:08:28;;;;;;;5.38;3.10;;;;;17.40;100729.00;;;;10464910;28;20197;-78
2021/05/26 14:13:30;;;;;;;4.65;3.45;;;;;16.50;100723.00;;;;10472155;28;20209;-79
2021/05/26 14:18:34;;;;;;;7.73;3.47;;;;;16.90;100731.00;;;;10474728;28;20280;-80
2021/05/26 14:23:36;;;;;;;3.47;3.17;;;;;17.50;100729.00;;;;10479650;28;20199;-80
2021/05/26 14:28:38;;;;;;;4.07;3.58;;;;;17.80;100727.00;;;;10469075;28;20267;-80
2021/05/26 14:33:40;;;;;;;4.30;2.97;;;;;19.80;100724.00;;;;10467449;28;20695;-80
2021/05/26 14:38:57;;;;;;;5.53;3.45;;;;;21.30;100734.00;;;;10481706;28;21334;-80
2021/05/26 14:44:00;;;;;;;4.32;2.72;;;;;20.30;100741.00;;;;10466176;28;20189;-79
2021/05/26 14:49:04;;;;;;;3.38;2.40;;;;;18.70;100744.00;;;;10494192;28;20205;-80
2021/05/26 14:54:09;;;;;;;4.72;3.03;;;;;17.20;100742.00;;;;10502220;28;20556;-80
2021/05/26 14:59:10;;;;;;;3.10;2.53;;;;;17.00;100744.00;;;;10470555;28;20229;-79
2021/05/26 15:04:12;;;;;;;3.33;2.50;;;;;18.50;100745.00;;;;10471370;28;20304;-81
2021/05/26 15:09:14;;;;;;;2.60;1.52;;;;;17.30;100759.00;;;;10478365;28;20743;-80
2021/05/26 15:14:16;;;;;;;2.72;1.30;;;;;20.20;100735.00;;;;10481265;28;20656;-80
2021/05/26 15:19:19;;;;;;;5.70;2.00;;;;;17.80;100745.00;;;;10508274;28;20214;-81
2021/05/26 15:24:21;;;;;;;4.50;1.85;;;;;18.60;100755.00;;;;10483515;28;20250;-79
2021/05/26 15:29:23;;;;;;;3.20;1.90;;;;;17.10;100754.00;;;;10447522;28;20671;-79
2021/05/26 15:34:25;;;;;;;3.95;1.75;;;;;22.50;100752.00;;;;10483533;28;20224;-79
2021/05/26 15:39:26;;;;;;;1.92;1.50;;;;;23.40;100733.00;;;;10478882;28;20224;-80
2021/05/26 15:44:29;;;;;;;1.70;1.60;;;;;23.60;100751.00;;;;10480351;28;20250;-81
2021/05/26 15:49:30;;;;;;;3.65;1.70;;;;;22.70;100755.00;;;;10464785;28;20215;-82
2021/05/26 15:54:32;;;;;;;2.70;1.92;;;;;23.00;100746.00;;;;10511033;28;20575;-80
2021/05/26 15:59:34;;;;;;;3.08;2.15;;;;;22.60;100738.00;;;;10481538;28;20235;-81
2021/05/26 16:04:36;;;;;;;3.08;1.63;;;;;22.20;100743.00;;;;10493919;28;20719;-82
2021/05/26 16:09:38;;;;;;;2.30;1.63;;;;;20.10;100770.00;;;;10509568;28;20620;-81
2021/05/26 16:14:39;;;;;;;3.22;1.70;;;;;18.00;100767.00;;;;10469662;28;20193;-82
2021/05/26 16:19:42;;;;;;;4.13;2.20;;;;;17.10;100779.00;;;;10462883;28;20821;-81
2021/05/26 16:24:45;;;;;;;3.17;2.13;;;;;16.80;100788.00;;;;10446024;28;20270;-81
2021/05/26 16:29:47;;;;;;;2.50;1.73;;;;;16.30;100773.00;;;;10479724;28;20204;-82
2021/05/26 16:34:49;;;;;;;3.70;2.10;;;;;16.10;100782.00;;;;10486302;28;20226;-81
2021/05/26 16:39:51;;;;;;;3.03;1.80;;;;;15.80;100778.00;;;;10474450;28;20225;-80
2021/05/26 16:44:53;;;;;;;3.30;1.90;;;;;15.90;100771.00;;;;10491638;28;20258;-81
2021/05/26 16:49:55;;;;;;;3.10;2.53;;;;;16.10;100772.00;;;;10490277;28;20555;-82
2021/05/26 16:54:57;;;;;;;3.53;2.20;;;;;16.20;100781.00;;;;10470858;28;20663;-82
2021/05/26 16:59:59;;;;;;;2.60;2.00;;;;;16.10;100784.00;;;;10499138;28;20584;-82
2021/05/26 17:05:03;;;;;;;2.77;1.97;;;;;16.00;100759.00;;;;10489849;28;20272;-81
2021/05/26 17:10:07;;;;;;;1.87;1.70;;;;;15.90;100795.00;;;;10474318;28;20200;-81
2021/05/26 17:15:10;;;;;;;3.67;2.10;;;;;15.80;100763.00;;;;10488133;28;20197;-81
2021/05/26 17:20:15;;;;;;;3.20;2.30;;;;;15.70;100788.00;;;;10472661;28;20229;-81
2021/05/26 17:25:17;;;;;;;6.57;2.63;;;;;15.40;100787.00;;;;10440395;28;20202;-80
2021/05/26 17:30:27;;;;;;;3.43;2.20;;;;;15.30;100785.00;;;;10455588;28;20216;-81
2021/05/26 17:35:30;;;;;;;3.83;1.83;;;;;15.30;100788.00;;;;10479473;28;20575;-80
2021/05/26 17:40:35;;;;;;;7.70;1.93;;;;;15.20;100801.00;;;;10464731;28;20225;-81
2021/05/26 17:45:42;;;;;;;5.90;2.10;;;;;15.20;100793.00;;;;10474721;28;20230;-81
2021/05/26 17:50:45;;;;;;;4.87;2.60;;;;;15.20;100802.00;;;;10498062;28;20271;-81
2021/05/26 17:55:47;;;;;;;4.60;2.47;;;;;15.00;100808.00;;;;10463405;28;20209;-81
2021/05/26 18:00:49;;;;;;;3.70;2.33;;;;;14.80;100815.00;;;;10463691;28;20844;-81
2021/05/26 18:05:51;;;;;;;2.97;2.10;;;;;14.50;100812.00;;;;10447762;28;20288;-81
2021/05/26 18:10:53;;;;;;;5.30;3.23;;;;;14.40;100822.00;;;;10448811;28;20204;-81
2021/05/26 18:15:56;;;;;;;4.07;2.90;;;;;14.50;100827.00;;;;10445563;28;20205;-80
2021/05/26 18:20:58;;;;;;;7.97;3.30;;;;;14.40;100834.00;;;;10447437;28;20270;-81
2021/05/26 18:26:02;;;;;;;4.37;2.50;;;;;14.20;100833.00;;;;10450281;28;20300;-81
2021/05/26 18:31:04;;;;;;;4.13;2.20;;;;;14.10;100837.00;;;;10474816;28;20771;-80
2021/05/26 18:36:07;;;;;;;5.17;2.20;;;;;14.10;100844.00;;;;10452222;28;20204;-80
2021/05/26 18:41:10;;;;;;;3.23;2.20;;;;;14.10;100851.00;;;;10531042;28;20201;-81
2021/05/26 18:46:12;;;;;;;4.00;2.33;;;;;14.00;100857.00;;;;10425668;28;20202;-81
2021/05/26 18:51:14;;;;;;;5.83;2.37;;;;;13.90;100857.00;;;;10455690;28;20202;-81
2021/05/26 18:56:16;;;;;;;3.50;2.23;;;;;13.70;100856.00;;;;10488161;28;20270;-80
2021/05/26 19:01:18;;;;;;;4.07;2.40;;;;;13.50;100866.00;;;;10466155;28;20201;-81
2021/05/26 19:06:20;;;;;;;3.13;2.23;;;;;13.40;100866.00;;;;10470129;28;20621;-81
2021/05/26 19:11:22;;;;;;;5.30;2.33;;;;;13.30;100873.00;;;;10454726;28;20201;-80
2021/05/26 19:16:24;;;;;;;4.90;2.80;;;;;13.30;100877.00;;;;10486456;28;20224;-80
2021/05/26 19:21:26;;;;;;;3.97;2.80;;;;;13.20;100883.00;;;;10450220;28;20258;-79
2021/05/26 19:26:28;;;;;;;4.97;2.67;;;;;13.10;100875.00;;;;10492644;28;20212;-80
2021/05/26 19:31:30;;;;;;;3.43;2.63;;;;;13.10;100889.00;;;;10506368;28;20266;-80
2021/05/26 19:36:32;;;;;;;4.87;3.10;;;;;13.00;100899.00;;;;10468814;28;20217;-80
2021/05/26 19:41:34;;;;;;;6.37;3.10;;;;;12.90;100900.00;;;;10463432;28;20751;-80
2021/05/26 19:46:36;;;;;;;6.60;3.40;;;;;12.90;100908.00;;;;10478340;28;20212;-80
2021/05/26 19:51:38;;;;;;;4.07;2.97;;;;;12.80;100914.00;;;;10490150;28;20196;-80
2021/05/26 19:56:40;;;;;;;5.93;3.13;;;;;12.80;100921.00;;;;10491993;28;20224;-79
2021/05/26 20:01:42;;;;;;;4.47;2.60;;;;;12.70;100923.00;;;;10477116;28;20297;-80
2021/05/26 20:06:44;;;;;;;5.37;3.20;;;;;12.70;100944.00;;;;10450844;28;21041;-79
2021/05/26 20:11:46;;;;;;;3.73;3.20;;;;;12.60;100948.00;;;;10467585;28;20326;-79
2021/05/26 20:16:48;;;;;;;8.40;3.20;;;;;12.60;100956.00;;;;10466576;28;20225;-80
2021/05/26 20:21:50;;;;;;;6.63;3.47;;;;;12.60;100961.00;;;;10475006;28;20208;-80
2021/05/26 20:26:52;;;;;;;5.27;2.80;;;;;12.60;100963.00;;;;10508028;28;20258;-79
2021/05/26 20:31:54;;;;;;;4.23;2.70;;;;;12.50;100970.00;;;;10490990;28;20225;-79
2021/05/26 20:36:56;;;;;;;3.53;2.40;;;;;12.50;100974.00;;;;10473887;28;20283;-79
2021/05/26 20:41:59;;;;;;;4.67;2.40;;;;;12.50;100980.00;;;;10446525;28;20201;-79
2021/05/26 20:47:02;;;;;;;5.77;2.80;;;;;12.50;100983.00;;;;10471960;28;20583;-81
2021/05/26 20:52:04;;;;;;;4.47;2.97;;;;;12.50;100985.00;;;;10490805;28;20200;-80
2021/05/26 20:57:06;;;;;;;9.70;2.97;;;;;12.50;100991.00;;;;10445812;28;20232;-79
2021/05/26 21:02:08;;;;;;;5.90;3.03;;;;;12.50;100990.00;;;;10468701;28;20197;-80
2021/05/26 21:07:10;;;;;;;5.33;2.90;;;;;12.50;101003.00;;;;10468540;28;20648;-79
2021/05/26 21:12:11;;;;;;;8.83;3.57;;;;;12.50;101013.00;;;;10451038;28;20198;-80
2021/05/26 21:17:13;;;;;;;8.77;3.23;;;;;12.50;101016.00;;;;10468317;28;20213;-80
2021/05/26 21:22:16;;;;;;;4.87;3.20;;;;;12.50;101016.00;;;;10434586;28;20760;-81
2021/05/26 21:27:18;;;;;;;5.73;3.20;;;;;12.50;101029.00;;;;10477580;28;20209;-81
2021/05/26 21:32:20;;;;;;;9.20;3.50;;;;;12.40;101025.00;;;;10486465;28;20605;-81
2021/05/26 21:37:22;;;;;;;6.27;3.43;;;;;12.40;101043.00;;;;10489137;28;20224;-80
2021/05/26 21:42:24;;;;;;;5.67;3.10;;;;;12.40;101048.00;;;;10473021;28;20201;-81
2021/05/26 21:47:26;;;;;;;6.37;3.10;;;;;12.40;101045.00;;;;10500497;28;20240;-80
2021/05/26 21:52:28;;;;;;;7.63;3.60;;;;;12.30;101051.00;;;;10488290;28;20193;-81
2021/05/26 21:57:30;;;;;;;6.57;3.20;;;;;12.20;101060.00;;;;10459898;28;20269;-81
2021/05/26 22:02:32;;;;;;;5.73;3.10;;;;;12.10;101056.00;;;;10505890;28;20188;-81
2021/05/26 22:07:34;;;;;;;5.37;3.77;;;;;12.10;101066.00;;;;10474737;28;20299;-81
2021/05/26 22:12:36;;;;;;;8.13;3.60;;;;;12.10;101075.00;;;;10478544;28;20555;-80
2021/05/26 22:17:39;;;;;;;8.83;3.77;;;;;12.10;101069.00;;;;10531018;28;20223;-81
2021/05/26 22:22:42;;;;;;;6.00;3.53;;;;;12.10;101073.00;;;;10497491;28;20205;-81
2021/05/26 22:27:43;;;;;;;7.27;3.67;;;;;12.00;101066.00;;;;10509378;28;20209;-80
2021/05/26 22:32:46;;;;;;;11.47;3.30;;;;;12.00;101078.00;;;;10475513;28;20220;-80
2021/05/26 22:37:49;;;;;;;6.67;3.63;;;;;12.00;101080.00;;;;10491942;28;20751;-81
2021/05/26 22:42:52;;;;;;;5.10;3.10;;;;;11.90;101082.00;;;;10507588;28;20193;-81
2021/05/26 22:47:54;;;;;;;5.90;3.50;;;;;11.80;101090.00;;;;10457333;28;20213;-81
2021/05/26 22:52:56;;;;;;;6.77;4.10;;;;;11.70;101089.00;;;;10473172;28;20247;-80
2021/05/26 22:57:58;;;;;;;10.63;3.37;;;;;11.60;101102.00;;;;10508603;28;20220;-81
2021/05/26 23:03:02;;;;;;;6.30;3.80;;;;;11.60;101102.00;;;;10513745;28;20550;-81
2021/05/26 23:08:04;;;;;;;6.87;4.17;;;;;11.50;101103.00;;;;10497101;28;20261;-82
2021/05/26 23:13:06;;;;;;;6.17;4.33;;;;;11.40;101110.00;;;;10476620;28;20251;-80
2021/05/26 23:18:08;;;;;;;6.40;4.40;;;;;11.30;101117.00;;;;10493329;28;20226;-80
2021/05/26 23:23:10;;;;;;;5.83;4.77;;;;;11.20;101116.00;;;;10469768;28;20296;-80
2021/05/26 23:28:12;;;;;;;9.37;5.30;;;;;11.20;101120.00;;;;10465934;28;20213;-80
2021/05/26 23:33:14;;;;;;;7.27;6.30;;;;;11.20;101114.00;;;;10466532;28;20229;-81
2021/05/26 23:38:16;;;;;;;8.23;6.17;;;;;11.10;101104.00;;;;10452380;28;20214;-81
2021/05/26 23:43:17;;;;;;;9.73;6.77;;;;;11.00;101115.00;;;;10414780;28;20207;-80
2021/05/26 23:48:27;;;;;;;7.50;6.07;;;;;11.00;101122.00;;;;10491503;28;20633;-80
2021/05/26 23:53:29;;;;;;;7.00;6.30;;;;;11.00;101118.00;;;;10485992;28;20220;-80
2021/05/26 23:58:31;;;;;;;9.37;6.90;;;;;10.90;101126.00;;;;10450553;28;20225;-81
